Time;durP1;ratioP1;P1;durP2;ratioP2;P2;SDS_P1;SDS_P2;PMS_P1;PMS_P2;Temp;Humidity;BMP_temperature;BMP_pressure;BME280_temperature;BME280_humidity;BME280_pressure;Samples;Min_cycle;Max_cycle;Signal;HPM_P1;HPM_P2
2023/06/07 00:00:44;;;;;;;;;;;;;;;13.91;100.00;95952.38;5076010;28;19929;-75
2023/06/07 00:03:11;;;;;;;;;;;;;;;13.69;100.00;95950.50;5081493;28;19932;-75
2023/06/07 00:05:38;;;;;;;;;;;;;;;13.73;100.00;95961.50;5071011;28;19925;-75
2023/06/07 00:08:06;;;;;;;;;;;;;;;13.34;100.00;95950.41;5074099;28;19974;-75
2023/06/07 00:10:33;;;;;;;;;;;;;;;13.53;100.00;95958.56;5082554;28;20020;-75
2023/06/07 00:12:59;;;;;;;;;;;;;;;13.51;100.00;95967.44;5084962;28;19943;-75
2023/06/07 00:15:25;;;;;;;;;;;;;;;13.44;100.00;95958.38;5075973;28;19954;-75
2023/06/07 00:17:52;;;;;;;;;;;;;;;13.44;100.00;95959.22;5078675;28;19929;-75
2023/06/07 00:20:19;;;;;;;;;;;;;;;13.31;100.00;95954.06;5077282;28;19971;-75
2023/06/07 00:22:47;;;;;;;;;;;;;;;13.28;100.00;95953.44;5063920;28;19933;-75
2023/06/07 00:25:14;;;;;;;;;;;;;;;13.27;100.00;95957.81;5075441;28;20445;-75
2023/06/07 00:27:41;;;;;;;;;;;;;;;13.28;100.00;95956.06;5075023;28;19931;-75
2023/06/07 00:30:08;;;;;;;;;;;;;;;13.30;100.00;95961.97;5068907;28;19982;-75
2023/06/07 00:32:34;;;;;;;;;;;;;;;13.36;100.00;95953.72;5067789;28;19928;-75
2023/06/07 00:35:00;;;;;;;;;;;;;;;13.38;100.00;95956.22;5077018;28;19928;-75
2023/06/07 00:37:27;;;;;;;;;;;;;;;13.37;100.00;95947.59;5072057;28;20400;-75
2023/06/07 00:39:53;;;;;;;;;;;;;;;13.34;100.00;95949.56;5071796;28;20590;-75
2023/06/07 00:42:21;;;;;;;;;;;;;;;13.38;100.00;95949.22;5067206;28;20477;-75
2023/06/07 00:44:47;;;;;;;;;;;;;;;13.43;100.00;95951.53;5069609;28;19924;-75
2023/06/07 00:47:13;;;;;;;;;;;;;;;13.45;100.00;95954.84;5075677;28;19948;-75
2023/06/07 00:49:39;;;;;;;;;;;;;;;13.43;100.00;95947.16;5077323;28;19924;-75
2023/06/07 00:52:06;;;;;;;;;;;;;;;13.29;100.00;95948.13;5080311;28;20341;-75
2023/06/07 00:54:32;;;;;;;;;;;;;;;13.03;100.00;95949.09;5088534;28;19928;-75
2023/06/07 00:56:59;;;;;;;;;;;;;;;13.01;100.00;95949.19;5065685;28;19943;-75
2023/06/07 00:59:27;;;;;;;;;;;;;;;12.96;100.00;95948.69;5072823;28;19925;-75
2023/06/07 01:01:55;;;;;;;;;;;;;;;12.92;100.00;95943.81;5087171;28;20362;-75
2023/06/07 01:04:22;;;;;;;;;;;;;;;12.89;100.00;95946.63;5073663;28;19924;-75
2023/06/07 01:06:49;;;;;;;;;;;;;;;12.82;100.00;95947.03;5076460;28;19924;-75
2023/06/07 01:09:16;;;;;;;;;;;;;;;12.76;100.00;95947.47;5077223;28;19924;-75
2023/06/07 01:11:44;;;;;;;;;;;;;;;12.77;100.00;95941.34;5075438;28;20026;-75
2023/06/07 01:14:11;;;;;;;;;;;;;;;12.81;100.00;95934.97;5073265;28;19928;-75
2023/06/07 01:16:39;;;;;;;;;;;;;;;12.93;100.00;95945.47;5068027;28;19925;-75
2023/06/07 01:19:06;;;;;;;;;;;;;;;12.81;100.00;95941.94;5073323;28;19931;-75
2023/06/07 01:21:34;;;;;;;;;;;;;;;12.62;100.00;95944.97;5063408;28;20011;-75
2023/06/07 01:24:01;;;;;;;;;;;;;;;12.48;100.00;95939.88;5085739;28;19931;-74
2023/06/07 01:26:29;;;;;;;;;;;;;;;12.47;100.00;95938.22;5076788;28;19986;-75
2023/06/07 01:28:55;;;;;;;;;;;;;;;12.53;100.00;95943.00;5082995;28;19928;-75
2023/06/07 01:31:23;;;;;;;;;;;;;;;12.45;100.00;95934.91;5073127;28;19925;-74
2023/06/07 01:33:49;;;;;;;;;;;;;;;12.42;100.00;95929.91;5074595;28;19935;-75
2023/06/07 01:36:16;;;;;;;;;;;;;;;12.43;100.00;95932.41;5077224;28;19935;-74
2023/06/07 01:38:44;;;;;;;;;;;;;;;12.56;100.00;95930.63;5074672;28;19924;-74
2023/06/07 01:41:13;;;;;;;;;;;;;;;12.39;100.00;95925.75;5075481;28;20027;-74
2023/06/07 01:43:40;;;;;;;;;;;;;;;12.25;100.00;95925.84;5072730;28;20410;-75
2023/06/07 01:46:06;;;;;;;;;;;;;;;12.22;100.00;95921.69;5081701;28;19966;-75
2023/06/07 01:48:32;;;;;;;;;;;;;;;12.25;100.00;95926.69;5065308;28;19929;-74
2023/06/07 01:50:59;;;;;;;;;;;;;;;12.37;100.00;95924.19;5083548;28;20306;-75
2023/06/07 01:53:25;;;;;;;;;;;;;;;12.25;100.00;95923.25;5077169;28;19924;-75
2023/06/07 01:55:56;;;;;;;;;;;;;;;11.96;100.00;95925.19;5076551;28;19929;-74
2023/06/07 01:58:29;;;;;;;;;;;;;;;11.87;100.00;95924.03;5076597;28;19948;-75
2023/06/07 02:00:58;;;;;;;;;;;;;;;11.77;100.00;95922.94;5062461;28;19967;-75
2023/06/07 02:03:27;;;;;;;;;;;;;;;11.63;100.00;95919.47;5076029;28;19928;-75
2023/06/07 02:05:57;;;;;;;;;;;;;;;11.56;100.00;95915.59;5071204;28;19928;-75
2023/06/07 02:08:28;;;;;;;;;;;;;;;11.60;100.00;95913.63;5077335;28;19928;-75
2023/06/07 02:10:55;;;;;;;;;;;;;;;11.64;100.00;95909.91;5067231;28;20301;-74
2023/06/07 02:13:21;;;;;;;;;;;;;;;11.62;100.00;95907.44;5083271;28;19947;-75
2023/06/07 02:15:49;;;;;;;;;;;;;;;11.54;100.00;95919.22;5072439;28;19924;-75
2023/06/07 02:18:19;;;;;;;;;;;;;;;11.42;100.00;95910.47;5075775;28;19931;-74
2023/06/07 02:20:45;;;;;;;;;;;;;;;11.40;100.00;95914.91;5067051;28;19929;-75
2023/06/07 02:23:11;;;;;;;;;;;;;;;11.47;100.00;95910.19;5073684;28;19982;-75
2023/06/07 02:25:38;;;;;;;;;;;;;;;11.53;100.00;95907.16;5069890;28;20452;-75
2023/06/07 02:28:04;;;;;;;;;;;;;;;11.61;100.00;95910.97;5077116;28;19975;-74
2023/06/07 02:30:31;;;;;;;;;;;;;;;11.74;100.00;95910.97;5076085;28;19971;-74
2023/06/07 02:33:00;;;;;;;;;;;;;;;11.83;100.00;95912.16;5068421;28;20338;-74
2023/06/07 02:35:27;;;;;;;;;;;;;;;11.95;100.00;95913.16;5080352;28;19954;-74
2023/06/07 02:37:53;;;;;;;;;;;;;;;11.82;100.00;95913.91;5076090;28;19928;-75
2023/06/07 02:40:19;;;;;;;;;;;;;;;11.72;100.00;95915.47;5068857;28;20390;-74
2023/06/07 02:42:46;;;;;;;;;;;;;;;11.67;100.00;95914.06;5077982;28;19978;-74
2023/06/07 02:45:12;;;;;;;;;;;;;;;11.41;100.00;95911.38;5072409;28;20344;-74
2023/06/07 02:47:39;;;;;;;;;;;;;;;11.33;100.00;95921.44;5079059;28;19928;-75
2023/06/07 02:50:07;;;;;;;;;;;;;;;11.25;100.00;95921.91;5076821;28;20386;-75
2023/06/07 02:52:34;;;;;;;;;;;;;;;11.27;100.00;95919.22;5079162;28;20023;-74
2023/06/07 02:55:01;;;;;;;;;;;;;;;11.29;100.00;95923.38;5085710;28;19933;-75
2023/06/07 02:57:27;;;;;;;;;;;;;;;11.29;100.00;95920.78;5068994;28;19932;-74
2023/06/07 02:59:53;;;;;;;;;;;;;;;11.32;100.00;95924.97;5068043;28;19944;-75
2023/06/07 03:02:20;;;;;;;;;;;;;;;11.38;100.00;95919.34;5077410;28;19931;-75
2023/06/07 03:04:46;;;;;;;;;;;;;;;11.47;100.00;95925.75;5075469;28;20376;-75
2023/06/07 03:07:14;;;;;;;;;;;;;;;11.53;100.00;95920.16;5073239;28;19924;-75
2023/06/07 03:09:40;;;;;;;;;;;;;;;11.52;100.00;95921.91;5072288;28;19971;-75
2023/06/07 03:12:07;;;;;;;;;;;;;;;11.47;100.00;95928.34;5080476;28;19958;-74
2023/06/07 03:14:34;;;;;;;;;;;;;;;11.44;100.00;95926.75;5076842;28;19978;-74
2023/06/07 03:17:02;;;;;;;;;;;;;;;11.47;100.00;95920.56;5073108;28;19994;-74
2023/06/07 03:19:29;;;;;;;;;;;;;;;11.45;100.00;95928.41;5075765;28;19929;-75
2023/06/07 03:21:55;;;;;;;;;;;;;;;11.44;100.00;95929.34;5067721;28;20448;-75
2023/06/07 03:24:24;;;;;;;;;;;;;;;11.43;100.00;95932.06;5079422;28;19928;-75
2023/06/07 03:26:52;;;;;;;;;;;;;;;11.45;100.00;95925.00;5063717;28;20375;-75
2023/06/07 03:29:18;;;;;;;;;;;;;;;11.45;100.00;95928.41;5079743;28;19932;-75
2023/06/07 03:31:44;;;;;;;;;;;;;;;11.50;100.00;95921.19;5071728;28;19982;-75
2023/06/07 03:34:11;;;;;;;;;;;;;;;11.39;100.00;95921.03;5070997;28;19978;-75
2023/06/07 03:36:37;;;;;;;;;;;;;;;11.42;100.00;95925.19;5072197;28;19967;-75
2023/06/07 03:39:04;;;;;;;;;;;;;;;11.41;100.00;95923.53;5066879;28;19927;-75
2023/06/07 03:41:31;;;;;;;;;;;;;;;11.37;100.00;95922.91;5075722;28;19931;-75
2023/06/07 03:43:58;;;;;;;;;;;;;;;11.28;100.00;95928.69;5076925;28;19925;-75
2023/06/07 03:46:24;;;;;;;;;;;;;;;11.24;100.00;95929.81;5079371;28;19924;-75
2023/06/07 03:48:50;;;;;;;;;;;;;;;11.24;100.00;95929.81;5074882;28;19986;-75
2023/06/07 03:51:16;;;;;;;;;;;;;;;11.26;100.00;95928.75;5078163;28;19924;-74
2023/06/07 03:53:43;;;;;;;;;;;;;;;11.25;100.00;95934.88;5077416;28;19932;-74
2023/06/07 03:56:09;;;;;;;;;;;;;;;11.27;100.00;95933.03;5084907;28;19924;-75
2023/06/07 03:58:37;;;;;;;;;;;;;;;11.32;100.00;95930.97;5074440;28;20007;-75
2023/06/07 04:01:03;;;;;;;;;;;;;;;11.42;100.00;95927.78;5073546;28;20011;-74
2023/06/07 04:03:30;;;;;;;;;;;;;;;11.41;100.00;95933.91;5074279;28;19924;-74
2023/06/07 04:05:56;;;;;;;;;;;;;;;11.43;100.00;95930.28;5071580;28;19925;-74
2023/06/07 04:08:23;;;;;;;;;;;;;;;11.44;100.00;95923.34;5081173;28;19935;-74
2023/06/07 04:10:49;;;;;;;;;;;;;;;11.44;100.00;95928.53;5076619;28;19970;-74
2023/06/07 04:13:15;;;;;;;;;;;;;;;11.47;100.00;95928.34;5079958;28;20477;-74
2023/06/07 04:15:43;;;;;;;;;;;;;;;11.49;100.00;95924.69;5078701;28;19931;-74
2023/06/07 04:18:09;;;;;;;;;;;;;;;11.56;100.00;95928.56;5071521;28;20300;-73
2023/06/07 04:20:35;;;;;;;;;;;;;;;11.62;100.00;95928.19;5072950;28;19958;-74
2023/06/07 04:23:01;;;;;;;;;;;;;;;11.76;100.00;95923.88;5074594;28;19932;-74
2023/06/07 04:25:31;;;;;;;;;;;;;;;11.79;100.00;95931.44;5076246;28;19928;-74
2023/06/07 04:27:59;;;;;;;;;;;;;;;11.69;100.00;95933.81;5068829;28;19925;-74
2023/06/07 04:30:25;;;;;;;;;;;;;;;11.71;100.00;95926.75;5080521;28;20314;-74
2023/06/07 04:32:53;;;;;;;;;;;;;;;11.80;100.00;95927.94;5072484;28;20018;-74
2023/06/07 04:35:19;;;;;;;;;;;;;;;11.90;100.00;95934.19;5065890;28;20416;-74
2023/06/07 04:37:45;;;;;;;;;;;;;;;12.00;100.00;95932.66;5073439;28;19925;-74
2023/06/07 04:40:13;;;;;;;;;;;;;;;12.19;100.00;95929.69;5074842;28;19928;-74
2023/06/07 04:42:40;;;;;;;;;;;;;;;12.29;100.00;95927.31;5075767;28;19932;-74
2023/06/07 04:45:07;;;;;;;;;;;;;;;12.41;100.00;95930.84;5083754;28;20424;-74
2023/06/07 04:47:33;;;;;;;;;;;;;;;12.36;100.00;95923.38;5078016;28;19993;-74
2023/06/07 04:50:01;;;;;;;;;;;;;;;12.28;100.00;95928.25;5079633;28;20361;-74
2023/06/07 04:52:28;;;;;;;;;;;;;;;12.30;100.00;95928.97;5077950;28;19967;-74
2023/06/07 04:54:56;;;;;;;;;;;;;;;12.26;100.00;95927.50;5084750;28;19924;-74
2023/06/07 04:57:23;;;;;;;;;;;;;;;12.33;100.00;95924.41;5069256;28;19932;-74
2023/06/07 04:59:51;;;;;;;;;;;;;;;12.54;100.00;95931.69;5070764;28;20036;-74
2023/06/07 05:02:17;;;;;;;;;;;;;;;12.72;100.00;95927.84;5075648;28;19925;-74
2023/06/07 05:04:44;;;;;;;;;;;;;;;12.76;100.00;95936.25;5073445;28;19978;-74
2023/06/07 05:07:13;;;;;;;;;;;;;;;12.74;100.00;95933.75;5082491;28;20019;-74
2023/06/07 05:09:39;;;;;;;;;;;;;;;12.77;100.00;95930.94;5071667;28;19931;-75
2023/06/07 05:12:06;;;;;;;;;;;;;;;12.93;100.00;95922.91;5079713;28;19924;-74
2023/06/07 05:14:33;;;;;;;;;;;;;;;13.01;100.00;95931.00;5079030;28;20337;-74
2023/06/07 05:16:59;;;;;;;;;;;;;;;13.04;100.00;95925.56;5077574;28;20178;-74
2023/06/07 05:19:26;;;;;;;;;;;;;;;13.11;100.00;95930.34;5072875;28;19978;-74
2023/06/07 05:21:52;;;;;;;;;;;;;;;13.27;100.00;95928.34;5074377;28;20040;-74
2023/06/07 05:24:20;;;;;;;;;;;;;;;13.40;100.00;95926.56;5082176;28;19928;-74
2023/06/07 05:26:46;;;;;;;;;;;;;;;13.53;100.00;95932.56;5068248;28;20011;-74
2023/06/07 05:29:13;;;;;;;;;;;;;;;13.69;100.00;95921.03;5078674;28;19931;-75
2023/06/07 05:31:39;;;;;;;;;;;;;;;13.83;100.00;95920.00;5071036;28;19974;-76
2023/06/07 05:34:06;;;;;;;;;;;;;;;14.01;100.00;95918.66;5067343;28;20299;-75
2023/06/07 05:36:34;;;;;;;;;;;;;;;14.16;100.00;95914.06;5063897;28;19995;-75
2023/06/07 05:39:01;;;;;;;;;;;;;;;14.33;100.00;95913.66;5071671;28;20332;-75
2023/06/07 05:41:28;;;;;;;;;;;;;;;14.39;100.00;95921.03;5076051;28;19931;-76
2023/06/07 05:43:54;;;;;;;;;;;;;;;14.52;100.00;95918.31;5073531;28;19932;-76
2023/06/07 05:46:21;;;;;;;;;;;;;;;14.73;100.00;95915.88;5078915;28;19938;-71
2023/06/07 05:48:47;;;;;;;;;;;;;;;14.90;100.00;95917.97;5063951;28;20032;-75
2023/06/07 05:51:14;;;;;;;;;;;;;;;14.97;100.00;95923.56;5063737;28;19989;-74
2023/06/07 05:53:40;;;;;;;;;;;;;;;15.13;100.00;95913.59;5077730;28;19924;-76
2023/06/07 05:56:09;;;;;;;;;;;;;;;15.09;100.00;95913.94;5080356;28;19932;-76
2023/06/07 05:58:37;;;;;;;;;;;;;;;14.93;100.00;95911.72;5074208;28;20329;-77
2023/06/07 06:01:05;;;;;;;;;;;;;;;14.92;100.00;95916.09;5070273;28;19928;-75
2023/06/07 06:03:31;;;;;;;;;;;;;;;15.21;100.00;95919.03;5076625;28;19968;-76
2023/06/07 06:05:58;;;;;;;;;;;;;;;15.50;100.00;95928.97;5073259;28;19925;-76
2023/06/07 06:08:24;;;;;;;;;;;;;;;15.80;100.00;95920.47;5083664;28;20019;-75
2023/06/07 06:10:50;;;;;;;;;;;;;;;16.02;100.00;95919.53;5076029;28;19928;-76
2023/06/07 06:13:16;;;;;;;;;;;;;;;16.28;100.00;95916.53;5080111;28;20383;-76
2023/06/07 06:15:44;;;;;;;;;;;;;;;16.45;100.00;95921.19;5069771;28;19932;-76
2023/06/07 06:18:10;;;;;;;;;;;;;;;16.62;100.00;95927.63;5078218;28;19946;-76
2023/06/07 06:20:37;;;;;;;;;;;;;;;16.81;100.00;95921.69;5067915;28;19924;-76
2023/06/07 06:23:04;;;;;;;;;;;;;;;16.93;100.00;95925.88;5070314;28;19973;-76
2023/06/07 06:25:31;;;;;;;;;;;;;;;17.20;100.00;95925.28;5077366;28;19928;-76
2023/06/07 06:27:57;;;;;;;;;;;;;;;17.33;100.00;95928.50;5057717;28;19933;-76
2023/06/07 06:30:26;;;;;;;;;;;;;;;17.49;100.00;95925.34;5074881;28;19928;-76
2023/06/07 06:32:53;;;;;;;;;;;;;;;17.70;100.00;95933.09;5060843;28;19924;-77
2023/06/07 06:35:20;;;;;;;;;;;;;;;17.90;100.00;95921.69;5071924;28;19925;-76
2023/06/07 06:37:46;;;;;;;;;;;;;;;17.99;100.00;95922.69;5067066;28;19925;-77
2023/06/07 06:40:13;;;;;;;;;;;;;;;18.14;100.00;95921.28;5074394;28;19945;-76
2023/06/07 06:42:39;;;;;;;;;;;;;;;18.21;100.00;95923.38;5069352;28;19956;-77
2023/06/07 06:45:06;;;;;;;;;;;;;;;18.41;100.00;95924.16;5072909;28;20037;-77
2023/06/07 06:47:33;;;;;;;;;;;;;;;18.57;100.00;95919.97;5079066;28;20317;-77
2023/06/07 06:50:00;;;;;;;;;;;;;;;18.67;100.00;95933.06;5090599;28;19928;-77
2023/06/07 06:52:27;;;;;;;;;;;;;;;18.76;97.35;95934.03;5069920;28;20299;-77
2023/06/07 06:54:53;;;;;;;;;;;;;;;18.95;100.00;95934.00;5084342;28;19928;-77
2023/06/07 06:57:19;;;;;;;;;;;;;;;18.85;99.29;95931.41;5071971;28;19925;-75
2023/06/07 06:59:45;;;;;;;;;;;;;;;19.12;98.40;95931.56;5069654;28;20297;-75
2023/06/07 07:02:12;;;;;;;;;;;;;;;19.10;95.45;95932.56;5085071;28;19924;-76
2023/06/07 07:04:38;;;;;;;;;;;;;;;19.13;92.19;95930.59;5069486;28;19929;-75
2023/06/07 07:07:07;;;;;;;;;;;;;;;18.91;92.46;95940.50;5083139;28;19928;-76
2023/06/07 07:09:33;;;;;;;;;;;;;;;19.17;98.92;95938.06;5074501;28;19978;-76
2023/06/07 07:11:59;;;;;;;;;;;;;;;19.23;95.21;95944.50;5089722;28;19932;-76
2023/06/07 07:14:26;;;;;;;;;;;;;;;19.32;95.88;95943.66;5080127;28;19932;-76
2023/06/07 07:16:53;;;;;;;;;;;;;;;19.44;90.05;95946.91;5069398;28;19928;-75
2023/06/07 07:19:19;;;;;;;;;;;;;;;19.55;92.10;95944.06;5065199;28;19928;-76
2023/06/07 07:21:46;;;;;;;;;;;;;;;19.65;88.92;95944.03;5075067;28;19932;-76
2023/06/07 07:24:13;;;;;;;;;;;;;;;19.67;84.50;95944.72;5086000;28;20413;-75
2023/06/07 07:26:40;;;;;;;;;;;;;;;19.95;89.61;95942.84;5070674;28;19947;-75
2023/06/07 07:29:06;;;;;;;;;;;;;;;19.96;84.65;95944.53;5085955;28;19930;-76
2023/06/07 07:31:33;;;;;;;;;;;;;;;20.09;87.33;95952.03;5076350;28;19924;-75
2023/06/07 07:34:00;;;;;;;;;;;;;;;20.15;87.00;95948.81;5081221;28;20013;-75
2023/06/07 07:36:26;;;;;;;;;;;;;;;20.15;89.19;95948.81;5079941;28;19925;-75
2023/06/07 07:38:53;;;;;;;;;;;;;;;20.33;79.08;95941.72;5073197;28;20349;-75
2023/06/07 07:41:21;;;;;;;;;;;;;;;20.47;83.55;95935.94;5083200;28;20006;-77
2023/06/07 07:43:47;;;;;;;;;;;;;;;20.63;76.53;95944.94;5076025;28;19925;-77
2023/06/07 07:46:13;;;;;;;;;;;;;;;20.59;77.15;95944.41;5085131;28;19932;-76
2023/06/07 07:48:40;;;;;;;;;;;;;;;20.66;79.92;95937.56;5076199;28;19953;-76
2023/06/07 07:51:06;;;;;;;;;;;;;;;20.56;82.25;95944.72;5083682;28;19954;-78
2023/06/07 07:53:33;;;;;;;;;;;;;;;20.65;74.93;95942.97;5084350;28;19924;-77
2023/06/07 07:56:00;;;;;;;;;;;;;;;20.79;74.44;95947.66;5071673;28;19931;-76
2023/06/07 07:58:27;;;;;;;;;;;;;;;20.93;77.63;95943.66;5077569;28;19924;-75
2023/06/07 08:00:53;;;;;;;;;;;;;;;20.88;74.10;95940.66;5062225;28;20346;-75
2023/06/07 08:03:21;;;;;;;;;;;;;;;20.92;73.08;95939.38;5083359;28;19939;-75
2023/06/07 08:05:47;;;;;;;;;;;;;;;20.70;70.76;95938.09;5071181;28;19925;-76
2023/06/07 08:08:15;;;;;;;;;;;;;;;20.02;70.88;95936.03;5082532;28;20359;-77
2023/06/07 08:10:41;;;;;;;;;;;;;;;20.71;74.51;95937.09;5077220;28;19924;-77
2023/06/07 08:13:07;;;;;;;;;;;;;;;21.22;77.19;95936.22;5083022;28;19977;-76
2023/06/07 08:15:35;;;;;;;;;;;;;;;21.41;69.40;95940.44;5075199;28;19929;-76
2023/06/07 08:18:01;;;;;;;;;;;;;;;21.48;68.09;95938.00;5072240;28;19954;-77
2023/06/07 08:20:27;;;;;;;;;;;;;;;21.61;71.08;95934.91;5074286;28;19981;-76
2023/06/07 08:22:54;;;;;;;;;;;;;;;22.02;68.25;95930.53;5072415;28;20337;-76
2023/06/07 08:25:20;;;;;;;;;;;;;;;21.72;65.71;95934.59;5079117;28;20407;-77
2023/06/07 08:27:46;;;;;;;;;;;;;;;21.74;61.64;95932.66;5066770;28;19925;-76
2023/06/07 08:30:13;;;;;;;;;;;;;;;22.23;68.82;95932.75;5083778;28;20433;-77
2023/06/07 08:32:42;;;;;;;;;;;;;;;22.47;65.43;95918.69;5071259;28;19924;-78
2023/06/07 08:35:08;;;;;;;;;;;;;;;22.61;62.56;95919.84;5075474;28;19935;-77
2023/06/07 08:37:35;;;;;;;;;;;;;;;22.56;63.08;95923.00;5077880;28;19924;-76
2023/06/07 08:40:01;;;;;;;;;;;;;;;22.77;63.09;95934.84;5082123;28;19924;-77
2023/06/07 08:42:27;;;;;;;;;;;;;;;22.67;63.26;95933.22;5075206;28;19990;-76
2023/06/07 08:44:54;;;;;;;;;;;;;;;22.53;61.00;95930.41;5083222;28;19989;-77
2023/06/07 08:47:21;;;;;;;;;;;;;;;22.55;60.40;95937.19;5081980;28;19947;-77
2023/06/07 08:49:50;;;;;;;;;;;;;;;22.27;57.25;95927.97;5086181;28;19978;-77
2023/06/07 08:52:17;;;;;;;;;;;;;;;22.54;61.29;95930.25;5074255;28;19925;-77
2023/06/07 08:54:46;;;;;;;;;;;;;;;21.83;59.96;95944.84;5085213;28;19950;-77
2023/06/07 08:57:14;;;;;;;;;;;;;;;22.18;67.95;95948.25;5077638;28;19929;-77
2023/06/07 08:59:41;;;;;;;;;;;;;;;22.64;66.27;95938.81;5067991;28;19931;-78
2023/06/07 09:02:08;;;;;;;;;;;;;;;22.85;65.65;95937.47;5086457;28;19950;-75
2023/06/07 09:04:35;;;;;;;;;;;;;;;22.95;57.44;95940.78;5065583;28;19986;-75
2023/06/07 09:07:03;;;;;;;;;;;;;;;22.70;56.87;95932.88;5081748;28;19946;-76
2023/06/07 09:09:30;;;;;;;;;;;;;;;22.07;59.55;95940.63;5081161;28;19978;-77
2023/06/07 09:11:56;;;;;;;;;;;;;;;21.84;61.65;95943.03;5079120;28;19999;-77
2023/06/07 09:14:22;;;;;;;;;;;;;;;22.19;61.73;95931.41;5079586;28;19932;-78
2023/06/07 09:16:52;;;;;;;;;;;;;;;22.49;68.97;95926.47;5060846;28;19929;-77
2023/06/07 09:19:29;;;;;;;;;;;;;;;22.65;57.37;95939.63;5081104;28;19967;-78
2023/06/07 09:21:57;;;;;;;;;;;;;;;22.83;62.44;95936.81;5064619;28;19932;-76
2023/06/07 09:24:28;;;;;;;;;;;;;;;22.95;63.03;95932.84;5080008;28;19928;-75
2023/06/07 09:26:54;;;;;;;;;;;;;;;22.98;56.72;95931.69;5072003;28;20000;-75
2023/06/07 09:29:21;;;;;;;;;;;;;;;23.15;53.75;95935.94;5082983;28;20544;-75
2023/06/07 09:31:47;;;;;;;;;;;;;;;23.19;57.71;95940.72;5077667;28;19931;-76
2023/06/07 09:34:20;;;;;;;;;;;;;;;22.78;53.02;95926.75;5078840;28;19935;-75
2023/06/07 09:36:51;;;;;;;;;;;;;;;23.15;56.49;95925.38;5074293;28;19928;-75
2023/06/07 09:39:20;;;;;;;;;;;;;;;22.89;58.25;95921.13;5082154;28;20231;-75
2023/06/07 09:41:48;;;;;;;;;;;;;;;23.06;61.09;95929.03;5074921;28;20024;-76
2023/06/07 09:44:20;;;;;;;;;;;;;;;23.24;59.18;95926.16;5071228;28;19924;-76
2023/06/07 09:46:47;;;;;;;;;;;;;;;23.13;56.90;95924.72;5082522;28;19928;-77
2023/06/07 09:49:13;;;;;;;;;;;;;;;23.28;60.26;95928.28;5082368;28;20405;-76
2023/06/07 09:51:40;;;;;;;;;;;;;;;23.56;67.07;95930.50;5067118;28;19930;-75
2023/06/07 09:54:08;;;;;;;;;;;;;;;23.66;62.34;95929.31;5068273;28;19985;-75
2023/06/07 09:56:39;;;;;;;;;;;;;;;22.99;58.20;95920.97;5077834;28;19923;-75
2023/06/07 09:59:09;;;;;;;;;;;;;;;22.74;62.25;95927.28;5060876;28;22282;-75
2023/06/07 10:01:37;;;;;;;;;;;;;;;22.72;62.17;95932.69;5065753;28;19929;-75
2023/06/07 10:04:04;;;;;;;;;;;;;;;22.75;59.28;95929.72;5069034;28;19934;-75
2023/06/07 10:06:32;;;;;;;;;;;;;;;23.02;58.67;95933.00;5076002;28;19934;-75
2023/06/07 10:09:00;;;;;;;;;;;;;;;23.15;59.05;95922.72;5076782;28;20344;-75
2023/06/07 10:11:27;;;;;;;;;;;;;;;23.16;57.76;95924.38;5080351;28;20014;-75
2023/06/07 10:13:54;;;;;;;;;;;;;;;23.31;57.58;95919.19;5069532;28;20410;-75
2023/06/07 10:16:22;;;;;;;;;;;;;;;23.66;61.17;95915.25;5064597;28;19924;-75
2023/06/07 10:18:50;;;;;;;;;;;;;;;23.91;64.75;95922.03;5074715;28;20381;-75
2023/06/07 10:21:19;;;;;;;;;;;;;;;23.76;55.62;95917.69;5060915;28;20386;-75
2023/06/07 10:23:48;;;;;;;;;;;;;;;24.05;54.27;95909.06;5068387;28;19932;-75
2023/06/07 10:26:20;;;;;;;;;;;;;;;24.26;55.46;95911.88;5071587;28;19929;-75
2023/06/07 10:28:50;;;;;;;;;;;;;;;24.03;56.52;95903.13;5077895;28;19928;-75
2023/06/07 10:31:16;;;;;;;;;;;;;;;23.97;55.44;95904.66;5066861;28;19928;-75
2023/06/07 10:33:45;;;;;;;;;;;;;;;24.05;51.83;95904.59;5063752;28;19954;-75
2023/06/07 10:36:11;;;;;;;;;;;;;;;24.15;57.96;95909.66;5065008;28;20340;-75
2023/06/07 10:38:38;;;;;;;;;;;;;;;24.03;51.91;95901.31;5078650;28;19929;-75
2023/06/07 10:41:05;;;;;;;;;;;;;;;24.21;52.68;95901.00;5073509;28;19931;-75
2023/06/07 10:43:32;;;;;;;;;;;;;;;24.21;57.04;95892.22;5069135;28;19925;-75
2023/06/07 10:46:13;;;;;;;;;;;;;;;23.79;56.30;95893.53;5076607;28;20509;-75
2023/06/07 10:48:43;;;;;;;;;;;;;;;22.86;57.81;95895.06;5071298;28;19985;-75
2023/06/07 10:51:11;;;;;;;;;;;;;;;22.96;61.76;95894.06;5059791;28;20027;-75
2023/06/07 10:53:50;;;;;;;;;;;;;;;23.14;57.11;95894.69;5075995;28;19964;-75
2023/06/07 10:56:30;;;;;;;;;;;;;;;23.53;56.62;95889.34;5069218;28;20391;-76
2023/06/07 10:58:57;;;;;;;;;;;;;;;23.41;61.81;95893.41;5065626;28;19925;-76
2023/06/07 11:01:24;;;;;;;;;;;;;;;23.59;53.74;95886.03;5072840;28;20378;-75
2023/06/07 11:03:50;;;;;;;;;;;;;;;23.61;54.83;95885.84;5074077;28;20019;-74
2023/06/07 11:06:18;;;;;;;;;;;;;;;23.51;57.22;95894.00;5061180;28;19928;-74
2023/06/07 11:08:44;;;;;;;;;;;;;;;23.41;58.89;95894.22;5066660;28;19928;-74
2023/06/07 11:11:29;;;;;;;;;;;;;;;23.16;56.07;95888.22;5072181;28;19947;-74
2023/06/07 11:14:12;;;;;;;;;;;;;;;22.92;52.05;95893.59;5074937;28;19928;-74
2023/06/07 11:16:39;;;;;;;;;;;;;;;22.48;56.89;95890.53;5064777;28;20027;-75
2023/06/07 11:19:09;;;;;;;;;;;;;;;22.49;55.92;95889.53;5068282;28;20484;-75
2023/06/07 11:21:53;;;;;;;;;;;;;;;21.98;55.33;95887.84;5071002;28;19928;-76
2023/06/07 11:24:21;;;;;;;;;;;;;;;22.06;56.91;95896.75;5065701;28;20306;-77
2023/06/07 11:26:50;;;;;;;;;;;;;;;22.48;64.42;95887.88;5064328;28;19928;-77
2023/06/07 11:29:16;;;;;;;;;;;;;;;22.77;55.99;95882.88;5071596;28;19924;-75
2023/06/07 11:31:43;;;;;;;;;;;;;;;22.91;57.28;95882.19;5070945;28;19924;-76
2023/06/07 11:34:12;;;;;;;;;;;;;;;22.65;51.52;95873.63;5079349;28;20371;-75
2023/06/07 11:36:38;;;;;;;;;;;;;;;22.41;54.89;95867.44;5075336;28;20374;-77
2023/06/07 11:39:08;;;;;;;;;;;;;;;22.74;52.90;95883.22;5074844;28;19924;-77
2023/06/07 11:41:36;;;;;;;;;;;;;;;23.33;56.13;95882.88;5075242;28;19925;-75
2023/06/07 11:44:03;;;;;;;;;;;;;;;23.72;55.56;95871.44;5077446;28;20045;-75
2023/06/07 11:46:32;;;;;;;;;;;;;;;23.84;54.93;95877.97;5082850;28;20023;-76
2023/06/07 11:49:02;;;;;;;;;;;;;;;23.54;52.38;95883.06;5082317;28;19986;-76
2023/06/07 11:51:29;;;;;;;;;;;;;;;23.40;51.52;95883.81;5065863;28;19929;-77
2023/06/07 11:53:57;;;;;;;;;;;;;;;23.30;51.37;95873.47;5083888;28;20618;-77
2023/06/07 11:56:25;;;;;;;;;;;;;;;22.74;51.74;95874.47;5085905;28;19928;-76
2023/06/07 11:58:52;;;;;;;;;;;;;;;22.64;51.98;95875.47;5072684;28;19933;-74
2023/06/07 12:01:19;;;;;;;;;;;;;;;22.62;52.24;95863.41;5072728;28;19932;-75
2023/06/07 12:03:45;;;;;;;;;;;;;;;22.88;55.51;95871.94;5085791;28;20623;-75
2023/06/07 12:06:12;;;;;;;;;;;;;;;22.95;56.82;95866.81;5073165;28;20455;-76
2023/06/07 12:08:39;;;;;;;;;;;;;;;22.77;51.65;95866.19;5083903;28;20375;-74
2023/06/07 12:11:06;;;;;;;;;;;;;;;22.73;51.31;95865.72;5079738;28;20305;-77
2023/06/07 12:13:35;;;;;;;;;;;;;;;23.10;57.99;95869.56;5082145;28;19924;-75
2023/06/07 12:16:03;;;;;;;;;;;;;;;23.41;57.48;95866.97;5085656;28;19924;-77
2023/06/07 12:18:30;;;;;;;;;;;;;;;23.34;55.55;95866.00;5073264;28;20528;-75
2023/06/07 12:21:03;;;;;;;;;;;;;;;23.04;55.99;95863.16;5076347;28;19928;-76
2023/06/07 12:23:30;;;;;;;;;;;;;;;23.01;53.78;95858.22;5077916;28;19971;-76
2023/06/07 12:26:05;;;;;;;;;;;;;;;22.63;54.42;95860.63;5076984;28;19924;-75
2023/06/07 12:28:32;;;;;;;;;;;;;;;22.63;53.65;95862.44;5072689;28;19929;-75
2023/06/07 12:30:58;;;;;;;;;;;;;;;22.57;54.81;95858.66;5080694;28;19928;-75
2023/06/07 12:33:27;;;;;;;;;;;;;;;22.69;57.73;95859.97;5077478;28;19954;-74
2023/06/07 12:35:53;;;;;;;;;;;;;;;22.46;57.26;95849.25;5079301;28;20288;-75
2023/06/07 12:38:20;;;;;;;;;;;;;;;22.32;54.56;95852.59;5065820;28;19925;-75
2023/06/07 12:40:46;;;;;;;;;;;;;;;22.18;54.87;95846.19;5076633;28;19979;-75